Time;durP1;ratioP1;P1;durP2;ratioP2;P2;SDS_P1;SDS_P2;PMS_P1;PMS_P2;Temp;Humidity;BMP_temperature;BMP_pressure;BME280_temperature;BME280_humidity;BME280_pressure;Samples;Min_cycle;Max_cycle;Signal;HPM_P1;HPM_P2
2023/12/01 00:02:05;;;;;;;0.00;0.00;;;;;;;4.93;100.00;99350.50;5055807;28;20397;-63
2023/12/01 00:04:31;;;;;;;0.22;0.10;;;;;;;4.92;100.00;99352.28;5061804;28;20135;-64
2023/12/01 00:06:56;;;;;;;0.08;0.00;;;;;;;4.91;100.00;99353.22;5066632;28;20048;-62
2023/12/01 00:09:21;;;;;;;0.30;0.10;;;;;;;4.89;100.00;99355.13;5063742;28;20033;-62
2023/12/01 00:11:47;;;;;;;0.32;0.10;;;;;;;4.85;100.00;99355.53;5060109;28;20043;-62
2023/12/01 00:14:13;;;;;;;0.10;0.00;;;;;;;4.83;100.00;99347.91;5065253;28;20531;-61
2023/12/01 00:16:38;;;;;;;0.52;0.10;;;;;;;4.83;100.00;99349.69;5058351;28;20276;-62
2023/12/01 00:19:04;;;;;;;0.25;0.10;;;;;;;4.83;100.00;99342.75;5059335;28;20996;-62
2023/12/01 00:21:29;;;;;;;0.80;0.30;;;;;;;4.86;100.00;99345.06;5063206;28;20036;-62
2023/12/01 00:23:54;;;;;;;0.50;0.20;;;;;;;4.87;100.00;99351.88;5059178;28;20025;-62
2023/12/01 00:26:20;;;;;;;0.10;0.10;;;;;;;4.88;100.00;99353.50;5040886;28;20155;-62
2023/12/01 00:28:45;;;;;;;0.30;0.10;;;;;;;4.90;100.00;99346.44;5063833;28;20037;-62
2023/12/01 00:31:11;;;;;;;0.73;0.00;;;;;;;4.94;100.00;99352.16;5062655;28;20420;-62
2023/12/01 00:33:37;;;;;;;1.45;0.10;;;;;;;4.93;100.00;99327.28;5063988;28;20035;-62
2023/12/01 00:36:02;;;;;;;0.30;0.10;;;;;;;4.91;100.00;99322.25;5060171;28;20034;-62
2023/12/01 00:38:28;;;;;;;0.25;0.10;;;;;;;4.93;100.00;99332.44;5062742;28;20062;-62
2023/12/01 00:40:53;;;;;;;0.17;0.00;;;;;;;4.97;100.00;99344.13;5062309;28;20101;-62
2023/12/01 00:43:19;;;;;;;0.70;0.10;;;;;;;4.98;100.00;99331.09;5064420;28;20068;-61
2023/12/01 00:45:44;;;;;;;0.20;0.10;;;;;;;4.97;100.00;99332.03;5062177;28;20025;-62
2023/12/01 00:48:10;;;;;;;0.35;0.10;;;;;;;4.95;100.00;99339.09;5060281;28;20032;-64
2023/12/01 00:50:35;;;;;;;0.13;0.00;;;;;;;4.94;100.00;99324.56;5060494;28;20102;-62
2023/12/01 00:53:01;;;;;;;0.57;0.00;;;;;;;4.96;100.00;99316.69;5060572;28;20036;-62
2023/12/01 00:55:26;;;;;;;0.98;0.10;;;;;;;4.98;100.00;99309.63;5063381;28;20044;-62
2023/12/01 00:57:53;;;;;;;0.30;0.10;;;;;;;5.02;100.00;99299.84;5065317;28;20103;-62
2023/12/01 01:00:23;;;;;;;0.28;0.00;;;;;;;5.06;100.00;99294.25;5055063;28;20024;-61
2023/12/01 01:02:52;;;;;;;0.20;0.08;;;;;;;5.07;100.00;99282.16;5061365;28;20090;-62
2023/12/01 01:05:18;;;;;;;0.10;0.00;;;;;;;5.08;100.00;99273.47;5058914;28;20044;-62
2023/12/01 01:07:43;;;;;;;0.20;0.00;;;;;;;5.11;100.00;99270.63;5062304;28;20028;-62
2023/12/01 01:10:09;;;;;;;7.72;0.10;;;;;;;5.15;100.00;99279.72;5057867;28;20116;-62
2023/12/01 01:12:34;;;;;;;0.25;0.00;;;;;;;5.20;100.00;99278.31;5059471;28;20376;-62
2023/12/01 01:15:02;;;;;;;1.65;0.00;;;;;;;5.25;100.00;99291.63;5061172;28;20033;-62
2023/12/01 01:17:31;;;;;;;1.10;0.00;;;;;;;5.26;100.00;99298.44;5061135;28;20099;-62
2023/12/01 01:19:58;;;;;;;0.13;0.00;;;;;;;5.30;100.00;99296.38;5057975;28;20036;-63
2023/12/01 01:22:24;;;;;;;0.30;0.10;;;;;;;5.29;100.00;99280.06;5057963;28;20074;-62
2023/12/01 01:24:50;;;;;;;0.30;0.10;;;;;;;5.31;100.00;99287.69;5059049;28;20027;-62
2023/12/01 01:27:15;;;;;;;1.73;0.10;;;;;;;5.31;100.00;99283.34;5058448;28;20040;-62
2023/12/01 01:29:41;;;;;;;0.20;0.00;;;;;;;5.32;100.00;99291.91;5061331;28;20048;-62
2023/12/01 01:32:06;;;;;;;0.10;0.00;;;;;;;5.35;100.00;99307.13;5059942;28;20036;-62
2023/12/01 01:34:32;;;;;;;4.40;0.10;;;;;;;5.38;100.00;99296.50;5060083;28;20082;-62
2023/12/01 01:36:57;;;;;;;0.30;0.00;;;;;;;5.41;100.00;99300.56;5054498;28;20489;-62
2023/12/01 01:39:22;;;;;;;0.10;0.00;;;;;;;5.41;100.00;99291.06;5063020;28;20055;-62
2023/12/01 01:41:48;;;;;;;0.22;0.05;;;;;;;5.37;100.00;99276.78;5047040;28;20044;-62
2023/12/01 01:44:13;;;;;;;0.08;0.00;;;;;;;5.34;100.00;99262.38;5063118;28;20074;-62
2023/12/01 01:46:39;;;;;;;0.95;0.10;;;;;;;5.36;100.00;99267.41;5060101;28;20048;-63
2023/12/01 01:49:05;;;;;;;0.45;0.00;;;;;;;5.39;100.00;99272.31;5066391;28;20320;-62
2023/12/01 01:51:34;;;;;;;0.50;0.10;;;;;;;5.43;100.00;99268.50;5063527;28;20102;-62
2023/12/01 01:54:00;;;;;;;0.90;0.10;;;;;;;5.45;100.00;99271.75;5064553;28;20041;-62
2023/12/01 01:56:28;;;;;;;0.22;0.00;;;;;;;5.46;100.00;99270.78;5062622;28;20126;-62
2023/12/01 01:58:53;;;;;;;0.10;0.00;;;;;;;5.47;100.00;99269.84;5064335;28;20028;-63
2023/12/01 02:01:19;;;;;;;0.17;0.10;;;;;;;5.47;100.00;99269.03;5060415;28;20036;-62
2023/12/01 02:03:45;;;;;;;0.40;0.03;;;;;;;5.45;100.00;99266.59;5062005;28;20032;-62
2023/12/01 02:06:12;;;;;;;0.10;0.00;;;;;;;5.41;100.00;99264.41;5060837;28;20028;-62
2023/12/01 02:08:38;;;;;;;0.28;0.05;;;;;;;5.38;100.00;99251.78;5065076;28;20110;-62
2023/12/01 02:11:03;;;;;;;0.30;0.00;;;;;;;5.37;100.00;99257.91;5063438;28;20462;-63
2023/12/01 02:13:29;;;;;;;0.10;0.00;;;;;;;5.32;100.00;99253.97;5057747;28;20049;-62
2023/12/01 02:15:54;;;;;;;0.45;0.00;;;;;;;5.31;100.00;99259.28;5060199;28;20041;-62
2023/12/01 02:18:30;;;;;;;0.70;0.10;;;;;;;5.31;100.00;99254.91;5058979;28;20040;-62
2023/12/01 02:20:56;;;;;;;0.27;0.10;;;;;;;5.33;100.00;99247.03;5066495;28;20093;-62
2023/12/01 02:23:22;;;;;;;0.00;0.00;;;;;;;5.33;100.00;99236.69;5053968;28;20290;-62
2023/12/01 02:25:48;;;;;;;0.10;0.00;;;;;;;5.36;100.00;99230.44;5061809;28;20028;-62
2023/12/01 02:28:14;;;;;;;0.10;0.00;;;;;;;5.38;100.00;99234.50;5060140;28;20132;-62
2023/12/01 02:30:42;;;;;;;0.32;0.00;;;;;;;5.42;100.00;99225.53;5056222;28;20119;-62
2023/12/01 02:33:13;;;;;;;0.65;0.00;;;;;;;5.44;100.00;99231.38;5054722;28;20032;-62
2023/12/01 02:35:38;;;;;;;0.20;0.10;;;;;;;5.45;100.00;99233.00;5054626;28;20029;-62
2023/12/01 02:38:04;;;;;;;0.00;0.00;;;;;;;5.44;100.00;99223.63;5057125;28;20504;-62
2023/12/01 02:40:29;;;;;;;0.10;0.00;;;;;;;5.43;100.00;99221.19;5055139;28;20032;-62
2023/12/01 02:42:55;;;;;;;0.20;0.00;;;;;;;5.42;100.00;99222.94;5056641;28;20040;-62
2023/12/01 02:45:21;;;;;;;0.10;0.00;;;;;;;5.43;100.00;99211.66;5056270;28;20136;-62
2023/12/01 02:47:49;;;;;;;0.10;0.00;;;;;;;5.43;100.00;99227.16;5058916;28;20028;-62
2023/12/01 02:50:16;;;;;;;0.00;0.00;;;;;;;5.44;100.00;99221.03;5054768;28;20481;-62
2023/12/01 02:52:41;;;;;;;1.50;0.08;;;;;;;5.48;100.00;99218.97;5060429;28;20079;-62
2023/12/01 02:55:08;;;;;;;0.10;0.00;;;;;;;5.45;100.00;99221.84;5061967;28;20025;-62
2023/12/01 02:57:41;;;;;;;0.00;0.00;;;;;;;5.42;100.00;99214.38;5057520;28;20501;-62
2023/12/01 03:00:13;;;;;;;0.08;0.00;;;;;;;5.39;100.00;99214.66;5054798;28;20040;-62
2023/12/01 03:02:45;;;;;;;0.00;0.00;;;;;;;5.37;100.00;99211.41;5058717;28;20068;-62
2023/12/01 03:05:11;;;;;;;0.00;0.00;;;;;;;5.33;100.00;99210.88;5056259;28;20037;-62
2023/12/01 03:07:37;;;;;;;0.10;0.00;;;;;;;5.32;100.00;99201.50;5060521;28;20025;-63
2023/12/01 03:10:05;;;;;;;0.05;0.00;;;;;;;5.32;100.00;99209.25;5056412;28;20031;-62
2023/12/01 03:12:30;;;;;;;0.03;0.00;;;;;;;5.35;100.00;99198.63;5050532;28;20037;-62
2023/12/01 03:14:59;;;;;;;0.43;0.00;;;;;;;5.37;100.00;99201.88;5058422;28;20041;-62
2023/12/01 03:17:25;;;;;;;0.55;0.05;;;;;;;5.45;100.00;99208.94;5059592;28;20069;-62
2023/12/01 03:19:51;;;;;;;0.10;0.00;;;;;;;5.50;100.00;99217.88;5054358;28;20489;-62
2023/12/01 03:22:17;;;;;;;0.73;0.00;;;;;;;5.55;100.00;99218.28;5056520;28;20033;-62
2023/12/01 03:24:45;;;;;;;0.00;0.00;;;;;;;5.57;100.00;99216.38;5062699;28;20690;-62
2023/12/01 03:27:11;;;;;;;0.00;0.00;;;;;;;5.57;100.00;99207.81;5059207;28;20094;-67
2023/12/01 03:29:38;;;;;;;0.40;0.00;;;;;;;5.57;100.00;99202.63;5057397;28;20033;-65
2023/12/01 03:32:04;;;;;;;0.10;0.00;;;;;;;5.56;100.00;99186.31;5057102;28;20163;-62
2023/12/01 03:34:30;;;;;;;0.00;0.00;;;;;;;5.59;100.00;99186.03;5055983;28;20028;-62
2023/12/01 03:36:56;;;;;;;0.00;0.00;;;;;;;5.62;100.00;99183.16;5057131;28;20139;-62
2023/12/01 03:39:21;;;;;;;0.20;0.00;;;;;;;5.66;100.00;99178.53;5044241;28;20113;-63
2023/12/01 03:41:48;;;;;;;0.32;0.00;;;;;;;5.71;100.00;99183.22;5063959;28;20127;-63
2023/12/01 03:44:13;;;;;;;0.10;0.00;;;;;;;5.72;100.00;99190.03;5056051;28;20490;-62
2023/12/01 03:46:39;;;;;;;0.00;0.00;;;;;;;5.74;100.00;99183.75;5059541;28;20035;-62
2023/12/01 03:49:04;;;;;;;0.10;0.00;;;;;;;5.75;100.00;99184.56;5059822;28;20091;-62
2023/12/01 03:51:30;;;;;;;0.05;0.00;;;;;;;5.76;100.00;99176.66;5064516;28;20098;-62
2023/12/01 03:53:55;;;;;;;0.00;0.00;;;;;;;5.76;100.00;99178.44;5058788;28;20033;-62
2023/12/01 03:56:21;;;;;;;0.43;0.00;;;;;;;5.77;100.00;99178.28;5061960;28;20420;-62
2023/12/01 03:58:46;;;;;;;0.30;0.00;;;;;;;5.76;100.00;99176.66;5060078;28;20424;-62
2023/12/01 04:01:12;;;;;;;0.00;0.00;;;;;;;5.76;100.00;99170.69;5058700;28;20052;-63
2023/12/01 04:03:38;;;;;;;0.00;0.00;;;;;;;5.78;100.00;99163.59;5060990;28;20029;-62
2023/12/01 04:06:03;;;;;;;0.08;0.00;;;;;;;5.78;100.00;99171.34;5060204;28;20025;-63
2023/12/01 04:08:29;;;;;;;0.30;0.00;;;;;;;5.79;100.00;99165.22;5061491;28;20044;-63
2023/12/01 04:10:55;;;;;;;0.00;0.00;;;;;;;5.79;100.00;99163.47;5059704;28;20500;-63
2023/12/01 04:13:21;;;;;;;0.00;0.00;;;;;;;5.77;100.00;99146.47;5065430;28;20049;-63
2023/12/01 04:15:47;;;;;;;0.50;0.00;;;;;;;5.80;100.00;99148.75;5060992;28;20025;-63
2023/12/01 04:18:12;;;;;;;0.20;0.00;;;;;;;5.84;100.00;99144.94;5057984;28;20032;-63
2023/12/01 04:20:38;;;;;;;0.20;0.00;;;;;;;5.89;100.00;99132.41;5058386;28;20037;-63
2023/12/01 04:23:11;;;;;;;0.00;0.00;;;;;;;5.91;100.00;99133.09;5064978;28;20470;-63
2023/12/01 04:25:38;;;;;;;0.10;0.00;;;;;;;5.93;100.00;99136.34;5056314;28;20040;-63
2023/12/01 04:28:05;;;;;;;0.00;0.00;;;;;;;5.97;100.00;99143.66;5039237;28;20032;-63
2023/12/01 04:30:31;;;;;;;0.17;0.00;;;;;;;5.99;100.00;99140.91;5056480;28;20029;-63
2023/12/01 04:32:59;;;;;;;0.52;0.00;;;;;;;6.01;100.00;99139.00;5055832;28;20048;-63
2023/12/01 04:35:29;;;;;;;0.22;0.10;;;;;;;6.03;100.00;99134.50;5062546;28;20032;-63
2023/12/01 04:37:55;;;;;;;0.63;0.00;;;;;;;6.06;100.00;99135.97;5060501;28;20024;-63
2023/12/01 04:40:22;;;;;;;0.10;0.00;;;;;;;6.03;100.00;99131.09;5068306;28;20041;-62
2023/12/01 04:42:49;;;;;;;0.00;0.00;;;;;;;5.98;100.00;99128.94;5060693;28;20146;-63
2023/12/01 04:45:18;;;;;;;0.15;0.00;;;;;;;5.97;100.00;99124.75;5061095;28;20330;-63
2023/12/01 04:47:45;;;;;;;0.20;0.00;;;;;;;5.98;100.00;99121.19;5060799;28;20025;-63
2023/12/01 04:50:14;;;;;;;0.10;0.00;;;;;;;5.99;100.00;99117.66;5062333;28;20494;-63
2023/12/01 04:52:45;;;;;;;0.22;0.00;;;;;;;5.99;100.00;99122.81;5060330;28;20046;-63
2023/12/01 04:55:14;;;;;;;0.10;0.00;;;;;;;6.00;100.00;99124.44;5059750;28;20370;-62
2023/12/01 04:57:42;;;;;;;0.05;0.00;;;;;;;6.02;100.00;99124.31;5054588;28;20040;-63
2023/12/01 05:00:25;;;;;;;0.00;0.00;;;;;;;6.03;100.00;99121.56;5061445;28;20037;-63
2023/12/01 05:02:51;;;;;;;0.10;0.00;;;;;;;6.06;100.00;99130.81;5063728;28;20493;-63
2023/12/01 05:05:18;;;;;;;0.10;0.00;;;;;;;6.09;100.00;99127.91;5056039;28;21452;-63
2023/12/01 05:07:44;;;;;;;0.28;0.00;;;;;;;6.15;100.00;99122.94;5064128;28;20093;-63
2023/12/01 05:10:14;;;;;;;0.00;0.00;;;;;;;6.18;100.00;99119.25;5059977;28;20037;-63
2023/12/01 05:12:50;;;;;;;0.30;0.10;;;;;;;6.21;100.00;99121.53;5061652;28;20036;-63
2023/12/01 05:15:17;;;;;;;0.40;0.10;;;;;;;6.25;100.00;99120.28;5060508;28;20068;-63
2023/12/01 05:17:44;;;;;;;0.32;0.10;;;;;;;6.26;100.00;99120.13;5059933;28;20066;-63
2023/12/01 05:20:15;;;;;;;0.28;0.10;;;;;;;6.30;100.00;99126.63;5061449;28;20520;-63
2023/12/01 05:22:49;;;;;;;0.30;0.00;;;;;;;6.29;100.00;99122.41;5066127;28;20033;-63
2023/12/01 05:25:16;;;;;;;0.10;0.00;;;;;;;6.27;100.00;99119.16;5058555;28;20035;-62
2023/12/01 05:27:50;;;;;;;0.10;0.00;;;;;;;6.29;100.00;99121.59;5057534;28;20032;-63
2023/12/01 05:30:18;;;;;;;0.45;0.00;;;;;;;6.32;100.00;99119.53;5056664;28;20039;-63
2023/12/01 05:32:46;;;;;;;1.35;0.00;;;;;;;6.36;100.00;99129.59;5064243;28;20028;-63
2023/12/01 05:35:12;;;;;;;0.03;0.00;;;;;;;6.36;100.00;99135.56;5059270;28;21658;-63
2023/12/01 05:37:39;;;;;;;0.40;0.00;;;;;;;6.37;100.00;99124.25;5057999;28;20040;-63
2023/12/01 05:40:14;;;;;;;0.20;0.00;;;;;;;6.41;100.00;99122.19;5059413;28;20106;-63
2023/12/01 05:42:44;;;;;;;0.20;0.00;;;;;;;6.45;100.00;99132.09;5058252;28;20553;-63
2023/12/01 05:45:14;;;;;;;2.85;0.00;;;;;;;6.47;100.00;99131.94;5057011;28;20032;-63
2023/12/01 05:47:45;;;;;;;0.98;0.08;;;;;;;6.47;100.00;99127.56;5054093;28;20513;-62
2023/12/01 05:50:15;;;;;;;0.50;0.15;;;;;;;6.50;100.00;99121.28;5066348;28;20056;-63
2023/12/01 05:52:42;;;;;;;0.75;0.20;;;;;;;6.54;100.00;99128.59;5061938;28;20044;-62
2023/12/01 05:55:14;;;;;;;1.27;0.63;;;;;;;6.52;100.00;99137.47;5060265;28;20029;-63
2023/12/01 05:57:56;;;;;;;3.00;1.40;;;;;;;6.50;100.00;99132.44;5062445;28;20067;-63
2023/12/01 06:00:24;;;;;;;8.43;2.55;;;;;;;6.51;100.00;99135.84;5061295;28;20051;-63
2023/12/01 06:02:53;;;;;;;5.00;1.63;;;;;;;6.49;100.00;99141.19;5067881;28;20024;-63
2023/12/01 06:05:20;;;;;;;10.77;3.17;;;;;;;6.50;100.00;99144.56;5062710;28;20028;-63
2023/12/01 06:07:49;;;;;;;6.40;2.38;;;;;;;6.50;100.00;99144.56;5065458;28;20029;-63
2023/12/01 06:10:16;;;;;;;8.88;3.10;;;;;;;6.50;100.00;99144.56;5064809;28;20055;-63
2023/12/01 06:12:42;;;;;;;12.77;6.03;;;;;;;6.45;100.00;99139.03;5065227;28;20067;-63
2023/12/01 06:15:12;;;;;;;15.48;5.13;;;;;;;6.44;100.00;99148.56;5066547;28;20493;-63
2023/12/01 06:17:39;;;;;;;13.75;4.60;;;;;;;6.41;100.00;99135.94;5061139;28;20036;-63
2023/12/01 06:20:16;;;;;;;9.95;2.95;;;;;;;6.44;100.00;99125.28;5063539;28;20094;-63
2023/12/01 06:22:48;;;;;;;1.85;0.75;;;;;;;6.46;100.00;99127.72;5063896;28;20082;-63
2023/12/01 06:25:15;;;;;;;2.20;0.30;;;;;;;6.51;100.00;99139.25;5065397;28;20029;-63
2023/12/01 06:27:41;;;;;;;2.83;0.60;;;;;;;6.56;100.00;99137.03;5062293;28;20109;-63
2023/12/01 06:30:13;;;;;;;1.02;0.50;;;;;;;6.56;100.00;99131.84;5063492;28;20032;-63
2023/12/01 06:32:41;;;;;;;1.08;0.30;;;;;;;6.57;100.00;99130.06;5058584;28;20035;-63
2023/12/01 06:35:14;;;;;;;0.60;0.20;;;;;;;6.53;100.00;99121.81;5059793;28;20082;-63
2023/12/01 06:37:40;;;;;;;0.60;0.20;;;;;;;6.58;100.00;99122.16;5062531;28;20028;-64
2023/12/01 06:40:15;;;;;;;0.65;0.13;;;;;;;6.63;100.00;99121.69;5053259;28;20032;-63
2023/12/01 06:42:49;;;;;;;0.63;0.20;;;;;;;6.62;100.00;99133.00;5055616;28;20086;-63
2023/12/01 06:45:16;;;;;;;2.17;0.50;;;;;;;6.71;100.00;99136.47;5053164;28;20123;-63
2023/12/01 06:47:46;;;;;;;1.35;0.50;;;;;;;6.74;100.00;99139.56;5053064;28;20021;-63
2023/12/01 06:50:14;;;;;;;1.08;0.30;;;;;;;6.77;100.00;99135.84;5057574;28;20048;-63
2023/12/01 06:52:40;;;;;;;1.45;0.22;;;;;;;6.77;100.00;99141.84;5060413;28;20034;-63
2023/12/01 06:55:09;;;;;;;0.30;0.00;;;;;;;6.75;100.00;99142.97;5057055;28;20063;-63
2023/12/01 06:57:40;;;;;;;1.00;0.10;;;;;;;6.72;100.00;99128.53;5055591;28;20494;-63
2023/12/01 07:00:08;;;;;;;0.28;0.10;;;;;;;6.66;100.00;99127.38;5056060;28;20036;-63
2023/12/01 07:02:38;;;;;;;2.60;0.10;;;;;;;6.64;100.00;99126.72;5066775;28;20678;-63
2023/12/01 07:05:08;;;;;;;0.30;0.10;;;;;;;6.64;100.00;99116.34;5060396;28;20017;-64
2023/12/01 07:07:37;;;;;;;1.40;0.10;;;;;;;6.65;100.00;99112.81;5064572;28;20033;-64
2023/12/01 07:10:05;;;;;;;0.00;0.00;;;;;;;6.66;100.00;99106.66;5062439;28;20036;-64
2023/12/01 07:12:30;;;;;;;0.13;0.00;;;;;;;6.73;100.00;99106.88;5055666;28;20397;-63
2023/12/01 07:14:56;;;;;;;0.20;0.00;;;;;;;6.74;100.00;99100.72;5050231;28;20136;-63
2023/12/01 07:17:21;;;;;;;0.10;0.00;;;;;;;6.81;100.00;99095.75;5052790;28;20024;-63
2023/12/01 07:19:46;;;;;;;0.13;0.00;;;;;;;6.86;100.00;99094.31;5049845;28;20114;-63
2023/12/01 07:22:12;;;;;;;0.52;0.10;;;;;;;6.87;100.00;99095.94;5038919;28;20535;-63
2023/12/01 07:24:38;;;;;;;1.08;0.20;;;;;;;6.86;100.00;99094.31;5042086;28;20084;-63
2023/12/01 07:27:04;;;;;;;2.45;0.68;;;;;;;6.86;100.00;99094.31;5062312;28;20029;-63
2023/12/01 07:29:30;;;;;;;5.13;1.05;;;;;;;6.88;100.00;99092.41;5063250;28;20033;-62
2023/12/01 07:31:55;;;;;;;1.58;0.60;;;;;;;6.92;100.00;99087.72;5062249;28;20033;-62
2023/12/01 07:34:21;;;;;;;1.15;0.30;;;;;;;7.02;100.00;99085.03;5053840;28;20119;-62
2023/12/01 07:36:46;;;;;;;0.68;0.20;;;;;;;7.02;100.00;99088.44;5059052;28;20504;-62
2023/12/01 07:39:12;;;;;;;1.42;0.20;;;;;;;6.97;100.00;99101.84;5060183;28;20024;-62
2023/12/01 07:41:38;;;;;;;1.20;0.20;;;;;;;6.93;100.00;99107.47;5055981;28;20494;-62
2023/12/01 07:44:03;;;;;;;1.15;0.10;;;;;;;6.85;100.00;99090.13;5062586;28;20090;-62
2023/12/01 07:46:32;;;;;;;2.88;0.20;;;;;;;6.83;100.00;99079.09;5056610;28;20120;-62
2023/12/01 07:48:59;;;;;;;1.17;0.10;;;;;;;6.85;100.00;99087.53;5058439;28;20029;-63
2023/12/01 07:51:25;;;;;;;0.40;0.20;;;;;;;6.94;100.00;99090.97;5060990;28;20025;-61
2023/12/01 07:53:51;;;;;;;0.40;0.10;;;;;;;7.03;100.00;99084.06;5064448;28;20032;-61
2023/12/01 07:56:23;;;;;;;0.10;0.00;;;;;;;7.05;100.00;99092.47;5053480;28;20499;-62
2023/12/01 07:58:50;;;;;;;0.68;0.10;;;;;;;7.03;100.00;99092.63;5054366;28;20043;-62
2023/12/01 08:01:16;;;;;;;1.00;0.20;;;;;;;7.02;100.00;99088.44;5052081;28;20466;-62
2023/12/01 08:03:46;;;;;;;1.85;0.20;;;;;;;7.03;100.00;99084.88;5057487;28;20032;-62
2023/12/01 08:06:13;;;;;;;1.40;0.40;;;;;;;7.11;100.00;99081.47;5057007;28;20051;-62
2023/12/01 08:08:40;;;;;;;5.30;0.77;;;;;;;7.16;100.00;99074.88;5062674;28;20032;-61
2023/12/01 08:11:05;;;;;;;5.30;1.08;;;;;;;7.19;100.00;99079.72;5058317;28;20048;-62
2023/12/01 08:13:31;;;;;;;4.32;0.93;;;;;;;7.18;100.00;99066.94;5056206;28;20497;-62
2023/12/01 08:15:56;;;;;;;1.40;0.30;;;;;;;7.27;100.00;99072.00;5060445;28;20044;-62
2023/12/01 08:18:22;;;;;;;0.40;0.10;;;;;;;7.25;100.00;99067.94;5056686;28;20132;-63
2023/12/01 08:20:48;;;;;;;0.77;0.10;;;;;;;7.26;100.00;99072.97;5060524;28;20493;-62
2023/12/01 08:23:13;;;;;;;0.40;0.10;;;;;;;7.26;100.00;99072.97;5056591;28;20437;-62
2023/12/01 08:25:39;;;;;;;2.10;0.10;;;;;;;7.22;100.00;99069.06;5062438;28;20033;-62
2023/12/01 08:28:05;;;;;;;0.30;0.10;;;;;;;7.27;100.00;99063.41;5067135;28;20119;-62
2023/12/01 08:30:30;;;;;;;0.40;0.10;;;;;;;7.31;100.00;99064.72;5066717;28;20062;-62
2023/12/01 08:32:56;;;;;;;2.33;0.20;;;;;;;7.30;100.00;99057.91;5062618;28;20052;-62
2023/12/01 08:35:22;;;;;;;0.63;0.20;;;;;;;7.33;100.00;99067.97;5061696;28;20124;-62
2023/12/01 08:37:47;;;;;;;2.42;0.30;;;;;;;7.32;100.00;99074.94;5068461;28;20565;-62
2023/12/01 08:40:13;;;;;;;0.57;0.22;;;;;;;7.30;100.00;99069.09;5061336;28;20045;-62
2023/12/01 08:42:41;;;;;;;1.27;0.30;;;;;;;7.39;100.00;99069.13;5066319;28;20100;-62
2023/12/01 08:45:08;;;;;;;1.40;0.30;;;;;;;7.47;100.00;99063.97;5062448;28;22168;-62
2023/12/01 08:47:33;;;;;;;2.15;0.20;;;;;;;7.51;100.00;99068.66;5061616;28;20079;-62
2023/12/01 08:49:59;;;;;;;1.30;0.30;;;;;;;7.50;100.00;99051.50;5058127;28;20055;-62
2023/12/01 08:52:25;;;;;;;3.83;0.20;;;;;;;7.51;100.00;99047.94;5063629;28;20047;-62
2023/12/01 08:54:50;;;;;;;1.15;0.30;;;;;;;7.44;100.00;99046.94;5055972;28;20024;-62
2023/12/01 08:57:16;;;;;;;1.88;0.30;;;;;;;7.51;100.00;99055.72;5055638;28;20040;-62
2023/12/01 08:59:43;;;;;;;1.27;0.45;;;;;;;7.55;100.00;99038.88;5062435;28;20032;-62
2023/12/01 09:02:09;;;;;;;1.58;0.40;;;;;;;7.60;100.00;99040.97;5058040;28;20032;-63
2023/12/01 09:04:34;;;;;;;2.10;0.60;;;;;;;7.61;100.00;99048.56;5059515;28;20367;-62
2023/12/01 09:07:00;;;;;;;3.97;1.30;;;;;;;7.61;100.00;99079.69;5072675;28;20044;-62
2023/12/01 09:09:26;;;;;;;2.00;0.88;;;;;;;7.56;100.00;99075.97;5064420;28;20417;-62
2023/12/01 09:11:51;;;;;;;1.42;0.50;;;;;;;7.51;100.00;99063.50;5062027;28;20036;-62
2023/12/01 09:14:17;;;;;;;3.38;0.40;;;;;;;7.59;100.00;99063.47;5055702;28;20457;-61
2023/12/01 09:16:43;;;;;;;2.40;0.70;;;;;;;7.62;100.00;99070.94;5062865;28;20482;-62
2023/12/01 09:19:08;;;;;;;7.20;2.28;;;;;;;7.58;100.00;99085.19;5055029;28;20059;-62
2023/12/01 09:21:33;;;;;;;3.38;1.60;;;;;;;7.54;100.00;99073.53;5065864;28;20100;-62
2023/12/01 09:23:59;;;;;;;2.08;0.40;;;;;;;7.57;100.00;99090.53;5063705;28;20029;-62
2023/12/01 09:26:24;;;;;;;3.92;0.68;;;;;;;7.58;100.00;99080.00;5058206;28;20028;-62
2023/12/01 09:28:53;;;;;;;3.10;0.50;;;;;;;7.55;100.00;99079.53;5061937;28;20024;-62
2023/12/01 09:31:18;;;;;;;1.35;0.50;;;;;;;7.73;100.00;99076.78;5063371;28;20448;-62
2023/12/01 09:33:43;;;;;;;0.82;0.40;;;;;;;7.74;100.00;99078.41;5063085;28;20465;-62
2023/12/01 09:36:10;;;;;;;1.65;0.50;;;;;;;7.69;100.00;99068.53;5056031;28;20486;-62
2023/12/01 09:38:35;;;;;;;1.40;0.40;;;;;;;7.63;100.00;99074.34;5055284;28;20050;-62
2023/12/01 09:41:02;;;;;;;4.53;0.60;;;;;;;7.62;100.00;99070.94;5062528;28;20489;-62
2023/12/01 09:43:30;;;;;;;7.22;1.60;;;;;;;7.68;100.00;99059.13;5058928;28;20082;-62
2023/12/01 09:45:56;;;;;;;5.75;0.80;;;;;;;7.75;100.00;99059.28;5064844;28;20028;-62
2023/12/01 09:48:21;;;;;;;3.80;1.35;;;;;;;7.76;100.00;99072.09;5063358;28;20090;-62
2023/12/01 09:50:47;;;;;;;4.95;0.80;;;;;;;7.75;100.00;99087.81;5065705;28;20025;-62
2023/12/01 09:53:13;;;;;;;5.68;1.20;;;;;;;7.75;100.00;99041.16;5069549;28;20068;-62
2023/12/01 09:55:38;;;;;;;3.03;1.20;;;;;;;7.87;100.00;99074.38;5062358;28;20032;-62
2023/12/01 09:58:04;;;;;;;4.30;1.40;;;;;;;7.84;100.00;99059.16;5064930;28;20028;-62
2023/12/01 10:00:30;;;;;;;3.63;1.15;;;;;;;7.88;100.00;99070.00;5066478;28;20059;-62
2023/12/01 10:02:55;;;;;;;7.45;1.40;;;;;;;7.88;100.00;99067.41;5067183;28;20040;-62
2023/12/01 10:05:21;;;;;;;5.68;2.78;;;;;;;7.82;100.00;99076.66;5063362;28;20020;-62
2023/12/01 10:07:48;;;;;;;4.95;1.40;;;;;;;7.85;100.00;99076.34;5063090;28;20107;-62
2023/12/01 10:10:21;;;;;;;5.03;2.00;;;;;;;7.85;100.00;99059.97;5061359;28;20033;-62
2023/12/01 10:12:55;;;;;;;4.97;2.00;;;;;;;7.95;100.00;99055.44;5064742;28;20039;-62
2023/12/01 10:15:21;;;;;;;6.47;2.53;;;;;;;7.97;100.00;99069.06;5050000;28;20086;-62
2023/12/01 10:17:46;;;;;;;5.57;2.03;;;;;;;7.96;100.00;99075.22;5065333;28;20028;-62
2023/12/01 10:20:18;;;;;;;4.43;1.90;;;;;;;7.94;100.00;99057.22;5059274;28;20028;-62
2023/12/01 10:22:44;;;;;;;8.93;2.55;;;;;;;8.01;100.00;99069.53;5060674;28;20021;-62
2023/12/01 10:25:12;;;;;;;4.60;2.25;;;;;;;7.95;100.00;99056.25;5061228;28;20481;-62
2023/12/01 10:27:39;;;;;;;4.18;2.25;;;;;;;7.94;100.00;99059.81;5061897;28;20168;-62
2023/12/01 10:30:14;;;;;;;5.38;2.10;;;;;;;7.96;100.00;99049.28;5051193;28;20028;-62
2023/12/01 10:32:43;;;;;;;3.75;2.22;;;;;;;7.94;100.00;99053.81;5046161;28;20036;-61
2023/12/01 10:35:09;;;;;;;4.75;1.92;;;;;;;8.01;100.00;99056.56;5053483;28;20029;-62
2023/12/01 10:37:37;;;;;;;6.03;3.00;;;;;;;8.02;100.00;99053.00;5054277;28;20112;-62
2023/12/01 10:40:06;;;;;;;4.80;2.63;;;;;;;7.92;100.00;99035.00;5056863;28;20020;-62
2023/12/01 10:42:35;;;;;;;4.28;1.60;;;;;;;7.91;100.00;99051.53;5057343;28;20063;-62
2023/12/01 10:45:02;;;;;;;2.67;1.38;;;;;;;7.95;100.00;99058.03;5062180;28;20334;-62
2023/12/01 10:47:29;;;;;;;3.92;1.65;;;;;;;7.97;100.00;99074.25;5056349;28;20394;-62
2023/12/01 10:49:58;;;;;;;10.77;2.88;;;;;;;7.88;100.00;99050.06;5062476;28;20119;-62
2023/12/01 10:52:25;;;;;;;5.32;2.60;;;;;;;7.91;100.00;99049.75;5056760;28;20605;-62
2023/12/01 10:54:51;;;;;;;3.80;2.00;;;;;;;7.95;100.00;99047.66;5061164;28;20058;-62
2023/12/01 10:57:31;;;;;;;5.15;1.88;;;;;;;7.94;100.00;99028.69;5053149;28;20043;-62
2023/12/01 11:00:01;;;;;;;5.30;2.05;;;;;;;7.95;100.00;99043.28;5054967;28;20107;-62
2023/12/01 11:02:28;;;;;;;10.00;3.40;;;;;;;8.07;100.00;99040.34;5059900;28;21612;-61
2023/12/01 11:04:54;;;;;;;7.22;2.72;;;;;;;8.15;100.00;99033.34;5057000;28;20032;-61
2023/12/01 11:07:47;;;;;;;6.72;2.65;;;;;;;8.16;100.00;99062.72;5058415;28;20493;-62
2023/12/01 11:10:22;;;;;;;6.57;2.50;;;;;;;8.18;100.00;99032.22;5055888;28;20436;-61
2023/12/01 11:13:17;;;;;;;5.27;2.40;;;;;;;8.15;100.00;99054.13;5055523;28;20537;-61
2023/12/01 11:15:44;;;;;;;5.05;2.17;;;;;;;8.11;100.00;99039.03;5052879;28;20032;-62
2023/12/01 11:18:11;;;;;;;10.10;2.78;;;;;;;8.05;100.00;99030.13;5058222;28;20497;-61
2023/12/01 11:20:40;;;;;;;8.05;3.22;;;;;;;8.05;100.00;99024.94;5063557;28;20039;-62
2023/12/01 11:23:08;;;;;;;8.00;3.25;;;;;;;8.15;100.00;99022.97;5059065;28;20036;-62
2023/12/01 11:25:55;;;;;;;5.20;2.33;;;;;;;8.21;100.00;99039.69;5057083;28;20032;-62
2023/12/01 11:31:20;;;;;;;6.30;3.47;;;;;;;8.18;100.00;99030.44;5064358;28;20055;-62
2023/12/01 11:33:51;;;;;;;9.00;2.85;;;;;;;8.19;100.00;99019.09;5058444;28;20036;-61
2023/12/01 11:36:33;;;;;;;8.88;2.88;;;;;;;8.28;100.00;99012.91;5057355;28;20037;-61
2023/12/01 11:39:20;;;;;;;11.50;3.20;;;;;;;8.36;100.00;99001.75;5057290;28;20083;-61